Providence, Rhode Island
Traffic Map
Current Weather Conditions
Providence, Rhode Island
Few Clouds
Few Clouds
12°
Feels Like: 12°
Wind Chill: 12° Ceiling: Unl
Heat Index: 12° Visibility: 10mi
Dew Point: Wind: 8mph
Humidity: 59% Direction: 290° (WNW)
Pressure: 29.96in Gusts: 0mph
Raw Report DataKPVD 301351Z 29007KT 10SM FEW070 FEW250 12/04 A2996 RMK AO2 SLP144 T01170039
Traffic Incident Summary
Active as of:
Severity:
Category:
InformationThere was an issue retrieving the traffic information for this location. Please try a different location or try again shortly.
Advertisements
Track Severe Weather on mobile